sensor_id;sensor_type;location;lat;lon;timestamp;P1;durP1;ratioP1;P2;durP2;ratioP2
42726;SDS011;28372;56.832;60.658;2022-12-08T00:01:30;6.78;;;3.05;;
42726;SDS011;28372;56.832;60.658;2022-12-08T00:04:00;7.38;;;3.15;;
42726;SDS011;28372;56.832;60.658;2022-12-08T00:09:25;6.13;;;2.85;;
42726;SDS011;28372;56.832;60.658;2022-12-08T00:12:08;5.82;;;2.88;;
42726;SDS011;28372;56.832;60.658;2022-12-08T00:14:39;7.60;;;3.28;;
42726;SDS011;28372;56.832;60.658;2022-12-08T00:17:09;8.50;;;3.20;;
42726;SDS011;28372;56.832;60.658;2022-12-08T00:19:39;6.95;;;3.20;;
42726;SDS011;28372;56.832;60.658;2022-12-08T00:22:07;7.05;;;3.03;;
42726;SDS011;28372;56.832;60.658;2022-12-08T00:24:37;8.07;;;3.55;;
42726;SDS011;28372;56.832;60.658;2022-12-08T00:27:07;5.90;;;2.85;;
42726;SDS011;28372;56.832;60.658;2022-12-08T00:29:36;8.32;;;3.08;;
42726;SDS011;28372;56.832;60.658;2022-12-08T00:32:04;6.40;;;2.92;;
42726;SDS011;28372;56.832;60.658;2022-12-08T00:34:33;7.65;;;2.90;;
42726;SDS011;28372;56.832;60.658;2022-12-08T00:37:00;8.10;;;2.80;;
42726;SDS011;28372;56.832;60.658;2022-12-08T00:39:28;8.00;;;2.80;;
42726;SDS011;28372;56.832;60.658;2022-12-08T00:41:56;4.97;;;2.38;;
42726;SDS011;28372;56.832;60.658;2022-12-08T00:44:42;8.60;;;3.28;;
42726;SDS011;28372;56.832;60.658;2022-12-08T00:47:11;7.05;;;2.78;;
42726;SDS011;28372;56.832;60.658;2022-12-08T00:49:40;6.30;;;2.58;;
42726;SDS011;28372;56.832;60.658;2022-12-08T00:52:08;6.07;;;2.92;;
42726;SDS011;28372;56.832;60.658;2022-12-08T00:54:35;8.05;;;2.70;;
42726;SDS011;28372;56.832;60.658;2022-12-08T00:57:03;7.32;;;2.78;;
42726;SDS011;28372;56.832;60.658;2022-12-08T00:59:31;5.15;;;2.45;;
42726;SDS011;28372;56.832;60.658;2022-12-08T01:01:59;7.07;;;2.90;;
42726;SDS011;28372;56.832;60.658;2022-12-08T01:04:27;7.60;;;2.95;;
42726;SDS011;28372;56.832;60.658;2022-12-08T01:06:55;6.70;;;3.00;;
42726;SDS011;28372;56.832;60.658;2022-12-08T01:09:22;8.00;;;3.30;;
42726;SDS011;28372;56.832;60.658;2022-12-08T01:11:50;8.98;;;3.35;;
42726;SDS011;28372;56.832;60.658;2022-12-08T01:14:18;9.15;;;3.65;;
42726;SDS011;28372;56.832;60.658;2022-12-08T01:16:46;7.80;;;3.30;;
42726;SDS011;28372;56.832;60.658;2022-12-08T01:19:15;7.72;;;3.20;;
42726;SDS011;28372;56.832;60.658;2022-12-08T01:21:44;8.30;;;3.30;;
42726;SDS011;28372;56.832;60.658;2022-12-08T01:24:13;7.47;;;3.60;;
42726;SDS011;28372;56.832;60.658;2022-12-08T01:26:46;8.95;;;3.38;;
42726;SDS011;28372;56.832;60.658;2022-12-08T01:29:15;7.35;;;3.10;;
42726;SDS011;28372;56.832;60.658;2022-12-08T01:31:43;8.20;;;3.25;;
42726;SDS011;28372;56.832;60.658;2022-12-08T01:34:11;6.28;;;2.92;;
42726;SDS011;28372;56.832;60.658;2022-12-08T01:36:39;8.57;;;3.42;;
42726;SDS011;28372;56.832;60.658;2022-12-08T01:39:09;7.93;;;3.22;;
42726;SDS011;28372;56.832;60.658;2022-12-08T01:41:41;8.02;;;3.60;;
42726;SDS011;28372;56.832;60.658;2022-12-08T01:46:38;8.25;;;3.33;;
42726;SDS011;28372;56.832;60.658;2022-12-08T01:54:20;8.50;;;3.33;;
42726;SDS011;28372;56.832;60.658;2022-12-08T02:00:03;7.25;;;3.05;;
42726;SDS011;28372;56.832;60.658;2022-12-08T02:05:28;5.70;;;2.90;;
42726;SDS011;28372;56.832;60.658;2022-12-08T02:07:59;8.10;;;3.00;;
42726;SDS011;28372;56.832;60.658;2022-12-08T02:10:32;6.80;;;3.42;;
42726;SDS011;28372;56.832;60.658;2022-12-08T02:13:01;9.10;;;3.78;;
42726;SDS011;28372;56.832;60.658;2022-12-08T02:15:55;7.53;;;3.65;;
42726;SDS011;28372;56.832;60.658;2022-12-08T02:21:08;8.50;;;3.60;;
42726;SDS011;28372;56.832;60.658;2022-12-08T02:35:02;7.60;;;3.60;;
42726;SDS011;28372;56.832;60.658;2022-12-08T02:37:56;8.85;;;3.67;;
42726;SDS011;28372;56.832;60.658;2022-12-08T02:40:47;8.50;;;4.13;;
42726;SDS011;28372;56.832;60.658;2022-12-08T02:43:42;7.88;;;3.30;;
42726;SDS011;28372;56.832;60.658;2022-12-08T02:46:19;8.27;;;3.67;;
42726;SDS011;28372;56.832;60.658;2022-12-08T02:51:18;9.50;;;3.60;;
42726;SDS011;28372;56.832;60.658;2022-12-08T02:53:46;8.15;;;3.60;;
42726;SDS011;28372;56.832;60.658;2022-12-08T02:59:17;7.03;;;3.53;;
42726;SDS011;28372;56.832;60.658;2022-12-08T03:10:39;10.07;;;4.25;;
42726;SDS011;28372;56.832;60.658;2022-12-08T03:13:13;9.10;;;3.60;;
42726;SDS011;28372;56.832;60.658;2022-12-08T03:15:47;8.40;;;3.85;;
42726;SDS011;28372;56.832;60.658;2022-12-08T03:18:17;7.88;;;3.42;;
42726;SDS011;28372;56.832;60.658;2022-12-08T03:20:52;7.50;;;3.40;;
42726;SDS011;28372;56.832;60.658;2022-12-08T03:23:20;10.02;;;4.80;;
42726;SDS011;28372;56.832;60.658;2022-12-08T03:26:11;10.32;;;3.72;;
42726;SDS011;28372;56.832;60.658;2022-12-08T03:28:43;10.52;;;4.28;;
42726;SDS011;28372;56.832;60.658;2022-12-08T03:31:12;11.43;;;4.15;;
42726;SDS011;28372;56.832;60.658;2022-12-08T03:33:42;11.82;;;4.10;;
42726;SDS011;28372;56.832;60.658;2022-12-08T03:36:14;8.88;;;3.78;;
42726;SDS011;28372;56.832;60.658;2022-12-08T03:38:43;13.52;;;5.05;;
42726;SDS011;28372;56.832;60.658;2022-12-08T03:41:11;10.32;;;4.22;;
42726;SDS011;28372;56.832;60.658;2022-12-08T03:43:49;13.82;;;4.88;;
42726;SDS011;28372;56.832;60.658;2022-12-08T03:46:22;14.50;;;6.07;;
42726;SDS011;28372;56.832;60.658;2022-12-08T03:48:50;15.57;;;4.65;;
42726;SDS011;28372;56.832;60.658;2022-12-08T03:51:17;9.50;;;4.82;;
42726;SDS011;28372;56.832;60.658;2022-12-08T03:53:46;13.93;;;5.00;;
42726;SDS011;28372;56.832;60.658;2022-12-08T03:56:24;13.63;;;4.60;;
42726;SDS011;28372;56.832;60.658;2022-12-08T03:58:54;11.57;;;4.72;;
42726;SDS011;28372;56.832;60.658;2022-12-08T04:01:22;10.90;;;4.40;;
42726;SDS011;28372;56.832;60.658;2022-12-08T04:03:50;14.60;;;4.80;;
42726;SDS011;28372;56.832;60.658;2022-12-08T04:06:18;10.38;;;4.05;;
42726;SDS011;28372;56.832;60.658;2022-12-08T04:08:46;7.90;;;4.15;;
42726;SDS011;28372;56.832;60.658;2022-12-08T04:11:14;9.13;;;4.00;;
42726;SDS011;28372;56.832;60.658;2022-12-08T04:13:42;9.32;;;4.30;;
42726;SDS011;28372;56.832;60.658;2022-12-08T04:16:16;8.88;;;3.78;;
42726;SDS011;28372;56.832;60.658;2022-12-08T04:18:49;10.52;;;3.70;;
42726;SDS011;28372;56.832;60.658;2022-12-08T04:21:17;9.63;;;3.65;;
42726;SDS011;28372;56.832;60.658;2022-12-08T04:23:44;10.45;;;4.80;;
42726;SDS011;28372;56.832;60.658;2022-12-08T04:26:13;9.45;;;4.70;;
42726;SDS011;28372;56.832;60.658;2022-12-08T04:28:41;10.02;;;4.50;;
42726;SDS011;28372;56.832;60.658;2022-12-08T04:31:08;13.15;;;4.20;;
42726;SDS011;28372;56.832;60.658;2022-12-08T04:33:36;9.13;;;4.38;;
42726;SDS011;28372;56.832;60.658;2022-12-08T04:36:04;11.48;;;5.28;;
42726;SDS011;28372;56.832;60.658;2022-12-08T04:38:32;9.30;;;3.97;;
42726;SDS011;28372;56.832;60.658;2022-12-08T04:41:00;9.45;;;3.97;;
42726;SDS011;28372;56.832;60.658;2022-12-08T04:43:28;11.90;;;3.67;;
42726;SDS011;28372;56.832;60.658;2022-12-08T04:45:56;7.78;;;2.90;;
42726;SDS011;28372;56.832;60.658;2022-12-08T04:48:23;8.73;;;3.80;;
42726;SDS011;28372;56.832;60.658;2022-12-08T04:50:51;8.05;;;3.75;;
42726;SDS011;28372;56.832;60.658;2022-12-08T04:53:19;7.32;;;3.80;;
42726;SDS011;28372;56.832;60.658;2022-12-08T04:55:47;8.43;;;3.45;;
42726;SDS011;28372;56.832;60.658;2022-12-08T04:58:16;12.48;;;4.30;;
42726;SDS011;28372;56.832;60.658;2022-12-08T05:00:45;9.65;;;4.30;;
42726;SDS011;28372;56.832;60.658;2022-12-08T05:03:13;11.18;;;4.10;;
42726;SDS011;28372;56.832;60.658;2022-12-08T05:05:42;10.30;;;4.97;;
42726;SDS011;28372;56.832;60.658;2022-12-08T05:08:10;10.98;;;4.70;;
42726;SDS011;28372;56.832;60.658;2022-12-08T05:10:38;11.07;;;4.60;;
42726;SDS011;28372;56.832;60.658;2022-12-08T05:13:06;8.25;;;4.28;;
42726;SDS011;28372;56.832;60.658;2022-12-08T05:15:33;10.55;;;4.68;;
42726;SDS011;28372;56.832;60.658;2022-12-08T05:18:01;9.70;;;4.53;;
42726;SDS011;28372;56.832;60.658;2022-12-08T05:20:31;10.38;;;4.75;;
42726;SDS011;28372;56.832;60.658;2022-12-08T05:22:59;8.93;;;4.45;;
42726;SDS011;28372;56.832;60.658;2022-12-08T05:25:27;10.15;;;4.00;;
42726;SDS011;28372;56.832;60.658;2022-12-08T05:27:55;10.40;;;3.80;;
42726;SDS011;28372;56.832;60.658;2022-12-08T05:30:42;9.93;;;4.30;;
42726;SDS011;28372;56.832;60.658;2022-12-08T05:33:10;9.82;;;4.68;;
42726;SDS011;28372;56.832;60.658;2022-12-08T05:35:37;10.23;;;3.92;;
42726;SDS011;28372;56.832;60.658;2022-12-08T05:38:05;12.27;;;4.93;;
42726;SDS011;28372;56.832;60.658;2022-12-08T05:40:33;10.38;;;4.80;;
42726;SDS011;28372;56.832;60.658;2022-12-08T05:43:00;11.95;;;5.40;;
42726;SDS011;28372;56.832;60.658;2022-12-08T05:45:28;11.00;;;4.82;;
42726;SDS011;28372;56.832;60.658;2022-12-08T05:47:56;13.10;;;5.78;;
42726;SDS011;28372;56.832;60.658;2022-12-08T05:50:23;11.13;;;3.97;;
42726;SDS011;28372;56.832;60.658;2022-12-08T05:52:53;12.38;;;4.60;;
42726;SDS011;28372;56.832;60.658;2022-12-08T05:55:21;10.98;;;4.78;;
42726;SDS011;28372;56.832;60.658;2022-12-08T05:57:48;8.95;;;4.40;;
42726;SDS011;28372;56.832;60.658;2022-12-08T06:00:16;8.85;;;3.97;;
42726;SDS011;28372;56.832;60.658;2022-12-08T06:02:44;10.63;;;4.97;;
42726;SDS011;28372;56.832;60.658;2022-12-08T06:05:12;13.75;;;5.75;;
42726;SDS011;28372;56.832;60.658;2022-12-08T06:07:39;12.93;;;5.80;;
42726;SDS011;28372;56.832;60.658;2022-12-08T06:10:07;10.68;;;5.07;;
42726;SDS011;28372;56.832;60.658;2022-12-08T06:12:35;9.50;;;4.53;;
42726;SDS011;28372;56.832;60.658;2022-12-08T06:15:03;8.95;;;4.30;;
42726;SDS011;28372;56.832;60.658;2022-12-08T06:17:30;10.52;;;4.50;;
42726;SDS011;28372;56.832;60.658;2022-12-08T06:19:58;11.57;;;4.18;;
42726;SDS011;28372;56.832;60.658;2022-12-08T06:22:25;10.10;;;4.45;;
42726;SDS011;28372;56.832;60.658;2022-12-08T06:24:54;10.27;;;4.18;;
42726;SDS011;28372;56.832;60.658;2022-12-08T06:27:22;11.05;;;4.00;;
42726;SDS011;28372;56.832;60.658;2022-12-08T06:29:50;10.02;;;5.15;;
42726;SDS011;28372;56.832;60.658;2022-12-08T06:32:17;9.32;;;4.25;;
42726;SDS011;28372;56.832;60.658;2022-12-08T06:34:52;9.02;;;4.07;;
42726;SDS011;28372;56.832;60.658;2022-12-08T06:37:20;12.73;;;4.72;;
42726;SDS011;28372;56.832;60.658;2022-12-08T06:39:48;12.15;;;4.70;;
42726;SDS011;28372;56.832;60.658;2022-12-08T06:42:15;12.43;;;4.82;;
42726;SDS011;28372;56.832;60.658;2022-12-08T06:45:01;12.77;;;4.93;;
42726;SDS011;28372;56.832;60.658;2022-12-08T06:47:29;13.27;;;5.47;;
42726;SDS011;28372;56.832;60.658;2022-12-08T06:49:57;12.13;;;4.75;;
42726;SDS011;28372;56.832;60.658;2022-12-08T06:52:24;10.50;;;4.22;;
42726;SDS011;28372;56.832;60.658;2022-12-08T06:54:52;9.88;;;4.35;;
42726;SDS011;28372;56.832;60.658;2022-12-08T06:57:19;12.55;;;4.57;;
42726;SDS011;28372;56.832;60.658;2022-12-08T06:59:47;9.80;;;4.30;;
42726;SDS011;28372;56.832;60.658;2022-12-08T07:02:15;9.45;;;4.35;;
42726;SDS011;28372;56.832;60.658;2022-12-08T07:04:43;11.77;;;4.53;;
42726;SDS011;28372;56.832;60.658;2022-12-08T07:07:10;10.73;;;4.72;;
42726;SDS011;28372;56.832;60.658;2022-12-08T07:09:38;10.02;;;4.32;;
42726;SDS011;28372;56.832;60.658;2022-12-08T07:12:06;10.50;;;4.80;;
42726;SDS011;28372;56.832;60.658;2022-12-08T07:14:33;12.60;;;5.57;;
42726;SDS011;28372;56.832;60.658;2022-12-08T07:17:01;11.15;;;5.20;;
42726;SDS011;28372;56.832;60.658;2022-12-08T07:19:29;11.48;;;5.47;;
42726;SDS011;28372;56.832;60.658;2022-12-08T07:21:56;11.77;;;5.05;;
42726;SDS011;28372;56.832;60.658;2022-12-08T07:24:24;11.32;;;5.22;;
42726;SDS011;28372;56.832;60.658;2022-12-08T07:26:51;9.15;;;4.63;;
42726;SDS011;28372;56.832;60.658;2022-12-08T07:29:19;9.05;;;4.35;;
42726;SDS011;28372;56.832;60.658;2022-12-08T07:31:52;11.07;;;5.03;;
42726;SDS011;28372;56.832;60.658;2022-12-08T07:34:19;12.13;;;4.90;;
42726;SDS011;28372;56.832;60.658;2022-12-08T07:36:47;10.27;;;4.75;;
42726;SDS011;28372;56.832;60.658;2022-12-08T07:39:14;10.75;;;4.22;;
42726;SDS011;28372;56.832;60.658;2022-12-08T07:41:42;8.75;;;4.50;;
42726;SDS011;28372;56.832;60.658;2022-12-08T07:44:10;10.60;;;4.82;;
42726;SDS011;28372;56.832;60.658;2022-12-08T07:46:37;10.98;;;4.45;;
42726;SDS011;28372;56.832;60.658;2022-12-08T07:49:05;9.82;;;5.40;;
42726;SDS011;28372;56.832;60.658;2022-12-08T07:51:32;10.38;;;4.60;;
42726;SDS011;28372;56.832;60.658;2022-12-08T07:54:00;12.40;;;5.20;;
42726;SDS011;28372;56.832;60.658;2022-12-08T07:56:28;8.65;;;4.72;;
42726;SDS011;28372;56.832;60.658;2022-12-08T07:58:55;8.25;;;4.35;;
42726;SDS011;28372;56.832;60.658;2022-12-08T08:01:24;9.77;;;4.18;;
42726;SDS011;28372;56.832;60.658;2022-12-08T08:03:54;10.68;;;4.95;;
42726;SDS011;28372;56.832;60.658;2022-12-08T08:06:23;9.55;;;4.28;;
42726;SDS011;28372;56.832;60.658;2022-12-08T08:08:51;9.65;;;4.65;;
42726;SDS011;28372;56.832;60.658;2022-12-08T08:11:18;9.95;;;4.93;;
42726;SDS011;28372;56.832;60.658;2022-12-08T08:13:48;10.48;;;4.72;;
42726;SDS011;28372;56.832;60.658;2022-12-08T08:16:16;8.73;;;4.32;;
42726;SDS011;28372;56.832;60.658;2022-12-08T08:18:48;11.73;;;5.35;;
42726;SDS011;28372;56.832;60.658;2022-12-08T08:21:17;10.00;;;5.05;;
42726;SDS011;28372;56.832;60.658;2022-12-08T08:24:05;12.02;;;4.70;;
42726;SDS011;28372;56.832;60.658;2022-12-08T08:26:33;11.98;;;4.40;;
42726;SDS011;28372;56.832;60.658;2022-12-08T08:29:01;13.05;;;5.07;;
42726;SDS011;28372;56.832;60.658;2022-12-08T08:31:29;10.68;;;4.75;;
42726;SDS011;28372;56.832;60.658;2022-12-08T08:33:57;11.20;;;4.90;;
42726;SDS011;28372;56.832;60.658;2022-12-08T08:36:26;9.27;;;4.75;;
42726;SDS011;28372;56.832;60.658;2022-12-08T08:38:54;11.65;;;4.60;;
42726;SDS011;28372;56.832;60.658;2022-12-08T08:41:21;8.68;;;4.35;;
42726;SDS011;28372;56.832;60.658;2022-12-08T08:43:49;9.82;;;3.97;;
42726;SDS011;28372;56.832;60.658;2022-12-08T08:46:16;8.80;;;4.40;;
42726;SDS011;28372;56.832;60.658;2022-12-08T08:48:44;8.93;;;4.20;;
42726;SDS011;28372;56.832;60.658;2022-12-08T08:51:12;11.50;;;4.65;;
42726;SDS011;28372;56.832;60.658;2022-12-08T08:53:41;9.30;;;4.55;;
42726;SDS011;28372;56.832;60.658;2022-12-08T08:56:09;11.32;;;4.70;;
42726;SDS011;28372;56.832;60.658;2022-12-08T08:58:38;11.05;;;4.88;;
42726;SDS011;28372;56.832;60.658;2022-12-08T09:01:06;11.27;;;4.50;;
42726;SDS011;28372;56.832;60.658;2022-12-08T09:03:34;10.27;;;4.90;;
42726;SDS011;28372;56.832;60.658;2022-12-08T09:06:02;10.55;;;4.65;;
42726;SDS011;28372;56.832;60.658;2022-12-08T09:08:29;8.95;;;4.47;;
42726;SDS011;28372;56.832;60.658;2022-12-08T09:10:57;7.88;;;3.75;;
42726;SDS011;28372;56.832;60.658;2022-12-08T09:13:25;12.55;;;5.53;;
42726;SDS011;28372;56.832;60.658;2022-12-08T09:15:52;9.80;;;4.68;;
42726;SDS011;28372;56.832;60.658;2022-12-08T09:18:20;9.50;;;4.70;;
42726;SDS011;28372;56.832;60.658;2022-12-08T09:20:48;8.52;;;4.13;;
42726;SDS011;28372;56.832;60.658;2022-12-08T09:23:15;9.63;;;4.28;;
42726;SDS011;28372;56.832;60.658;2022-12-08T09:25:43;9.27;;;4.43;;
42726;SDS011;28372;56.832;60.658;2022-12-08T09:28:11;9.07;;;4.03;;
42726;SDS011;28372;56.832;60.658;2022-12-08T09:30:40;9.48;;;4.10;;
42726;SDS011;28372;56.832;60.658;2022-12-08T09:33:08;10.52;;;4.30;;
42726;SDS011;28372;56.832;60.658;2022-12-08T09:35:35;8.43;;;3.78;;
42726;SDS011;28372;56.832;60.658;2022-12-08T09:38:03;10.10;;;4.30;;
42726;SDS011;28372;56.832;60.658;2022-12-08T09:40:31;8.77;;;3.92;;
42726;SDS011;28372;56.832;60.658;2022-12-08T09:43:14;8.65;;;4.28;;
42726;SDS011;28372;56.832;60.658;2022-12-08T09:45:54;11.15;;;4.47;;
42726;SDS011;28372;56.832;60.658;2022-12-08T09:48:29;11.45;;;4.68;;
42726;SDS011;28372;56.832;60.658;2022-12-08T09:51:01;11.90;;;4.85;;
42726;SDS011;28372;56.832;60.658;2022-12-08T09:53:38;11.07;;;4.10;;
42726;SDS011;28372;56.832;60.658;2022-12-08T10:01:26;10.95;;;4.63;;
42726;SDS011;28372;56.832;60.658;2022-12-08T10:03:56;10.70;;;4.70;;
42726;SDS011;28372;56.832;60.658;2022-12-08T10:17:25;10.18;;;4.22;;
42726;SDS011;28372;56.832;60.658;2022-12-08T10:19:58;7.97;;;4.55;;
42726;SDS011;28372;56.832;60.658;2022-12-08T10:22:33;7.28;;;4.07;;
42726;SDS011;28372;56.832;60.658;2022-12-08T10:25:19;9.27;;;3.80;;
42726;SDS011;28372;56.832;60.658;2022-12-08T10:27:54;9.32;;;4.07;;
42726;SDS011;28372;56.832;60.658;2022-12-08T10:30:24;9.52;;;3.92;;
42726;SDS011;28372;56.832;60.658;2022-12-08T10:32:52;11.10;;;4.05;;
42726;SDS011;28372;56.832;60.658;2022-12-08T10:35:21;10.80;;;4.65;;
42726;SDS011;28372;56.832;60.658;2022-12-08T10:37:55;8.07;;;3.70;;
42726;SDS011;28372;56.832;60.658;2022-12-08T10:40:28;7.85;;;4.00;;
42726;SDS011;28372;56.832;60.658;2022-12-08T10:43:11;9.48;;;3.95;;
42726;SDS011;28372;56.832;60.658;2022-12-08T10:45:50;11.63;;;4.45;;
42726;SDS011;28372;56.832;60.658;2022-12-08T10:48:20;9.13;;;3.45;;
42726;SDS011;28372;56.832;60.658;2022-12-08T10:50:55;8.45;;;3.97;;
42726;SDS011;28372;56.832;60.658;2022-12-08T10:53:25;10.65;;;4.75;;
42726;SDS011;28372;56.832;60.658;2022-12-08T11:01:14;8.68;;;3.95;;
42726;SDS011;28372;56.832;60.658;2022-12-08T11:03:50;9.00;;;3.85;;
42726;SDS011;28372;56.832;60.658;2022-12-08T11:06:23;8.95;;;4.07;;
42726;SDS011;28372;56.832;60.658;2022-12-08T11:08:57;10.00;;;3.97;;
42726;SDS011;28372;56.832;60.658;2022-12-08T11:11:38;10.10;;;3.95;;
42726;SDS011;28372;56.832;60.658;2022-12-08T11:14:15;8.98;;;3.65;;
42726;SDS011;28372;56.832;60.658;2022-12-08T11:16:50;9.32;;;4.43;;
42726;SDS011;28372;56.832;60.658;2022-12-08T11:19:21;8.20;;;3.97;;
42726;SDS011;28372;56.832;60.658;2022-12-08T11:21:55;9.13;;;3.95;;
42726;SDS011;28372;56.832;60.658;2022-12-08T11:24:24;7.88;;;3.58;;
42726;SDS011;28372;56.832;60.658;2022-12-08T11:27:00;7.28;;;3.45;;
42726;SDS011;28372;56.832;60.658;2022-12-08T11:29:30;7.55;;;3.75;;
42726;SDS011;28372;56.832;60.658;2022-12-08T11:32:03;7.90;;;3.95;;
42726;SDS011;28372;56.832;60.658;2022-12-08T11:37:17;7.82;;;3.28;;
42726;SDS011;28372;56.832;60.658;2022-12-08T11:40:02;8.43;;;3.67;;
42726;SDS011;28372;56.832;60.658;2022-12-08T11:42:36;8.77;;;3.92;;
42726;SDS011;28372;56.832;60.658;2022-12-08T11:45:13;6.82;;;3.80;;
42726;SDS011;28372;56.832;60.658;2022-12-08T11:47:48;9.80;;;3.80;;
42726;SDS011;28372;56.832;60.658;2022-12-08T11:50:26;7.88;;;3.85;;
42726;SDS011;28372;56.832;60.658;2022-12-08T11:52:57;9.57;;;4.13;;
42726;SDS011;28372;56.832;60.658;2022-12-08T11:58:16;7.50;;;3.53;;
42726;SDS011;28372;56.832;60.658;2022-12-08T12:00:48;6.60;;;3.60;;
42726;SDS011;28372;56.832;60.658;2022-12-08T12:03:24;9.90;;;4.43;;
42726;SDS011;28372;56.832;60.658;2022-12-08T12:09:22;8.82;;;3.80;;
42726;SDS011;28372;56.832;60.658;2022-12-08T12:20:29;7.93;;;3.70;;
42726;SDS011;28372;56.832;60.658;2022-12-08T12:23:03;8.57;;;3.67;;
42726;SDS011;28372;56.832;60.658;2022-12-08T12:25:54;10.88;;;3.85;;
42726;SDS011;28372;56.832;60.658;2022-12-08T12:28:26;9.32;;;4.30;;
42726;SDS011;28372;56.832;60.658;2022-12-08T12:31:10;10.52;;;4.50;;
42726;SDS011;28372;56.832;60.658;2022-12-08T12:33:43;9.85;;;3.90;;
42726;SDS011;28372;56.832;60.658;2022-12-08T12:36:13;11.63;;;5.35;;
42726;SDS011;28372;56.832;60.658;2022-12-08T12:38:45;11.20;;;4.38;;
42726;SDS011;28372;56.832;60.658;2022-12-08T12:41:35;9.23;;;3.85;;
42726;SDS011;28372;56.832;60.658;2022-12-08T12:47:00;9.18;;;3.67;;
42726;SDS011;28372;56.832;60.658;2022-12-08T12:59:46;10.68;;;3.95;;
42726;SDS011;28372;56.832;60.658;2022-12-08T13:10:28;10.85;;;4.10;;
42726;SDS011;28372;56.832;60.658;2022-12-08T13:13:14;9.73;;;4.00;;
42726;SDS011;28372;56.832;60.658;2022-12-08T13:18:17;6.40;;;3.45;;
42726;SDS011;28372;56.832;60.658;2022-12-08T13:26:16;7.47;;;3.40;;
42726;SDS011;28372;56.832;60.658;2022-12-08T13:35:00;7.13;;;3.08;;
42726;SDS011;28372;56.832;60.658;2022-12-08T13:42:56;6.90;;;3.58;;
42726;SDS011;28372;56.832;60.658;2022-12-08T13:45:19;8.98;;;3.90;;
42726;SDS011;28372;56.832;60.658;2022-12-08T13:51:22;8.15;;;2.97;;
42726;SDS011;28372;56.832;60.658;2022-12-08T13:57:25;6.57;;;3.10;;
42726;SDS011;28372;56.832;60.658;2022-12-08T13:59:58;5.85;;;2.90;;
42726;SDS011;28372;56.832;60.658;2022-12-08T14:02:40;6.90;;;3.03;;
42726;SDS011;28372;56.832;60.658;2022-12-08T14:05:18;6.95;;;3.03;;
42726;SDS011;28372;56.832;60.658;2022-12-08T14:14:01;5.30;;;2.95;;
42726;SDS011;28372;56.832;60.658;2022-12-08T14:16:35;9.77;;;4.15;;
42726;SDS011;28372;56.832;60.658;2022-12-08T14:19:06;8.15;;;3.47;;
42726;SDS011;28372;56.832;60.658;2022-12-08T14:21:49;6.57;;;2.90;;
42726;SDS011;28372;56.832;60.658;2022-12-08T14:24:22;9.75;;;3.40;;
42726;SDS011;28372;56.832;60.658;2022-12-08T14:26:53;6.68;;;3.35;;
42726;SDS011;28372;56.832;60.658;2022-12-08T14:35:36;8.68;;;3.30;;
42726;SDS011;28372;56.832;60.658;2022-12-08T14:38:13;7.03;;;3.50;;
42726;SDS011;28372;56.832;60.658;2022-12-08T14:40:44;8.02;;;3.20;;
42726;SDS011;28372;56.832;60.658;2022-12-08T14:43:26;8.68;;;3.13;;
42726;SDS011;28372;56.832;60.658;2022-12-08T14:45:58;8.10;;;3.58;;
42726;SDS011;28372;56.832;60.658;2022-12-08T14:51:18;8.43;;;3.50;;
42726;SDS011;28372;56.832;60.658;2022-12-08T14:54:03;8.23;;;3.28;;
42726;SDS011;28372;56.832;60.658;2022-12-08T14:56:41;6.15;;;3.08;;
42726;SDS011;28372;56.832;60.658;2022-12-08T14:59:29;7.72;;;3.50;;
42726;SDS011;28372;56.832;60.658;2022-12-08T15:02:20;7.72;;;3.50;;
42726;SDS011;28372;56.832;60.658;2022-12-08T15:05:00;6.65;;;3.38;;
42726;SDS011;28372;56.832;60.658;2022-12-08T15:07:50;6.97;;;3.08;;
42726;SDS011;28372;56.832;60.658;2022-12-08T15:10:22;11.30;;;4.65;;
42726;SDS011;28372;56.832;60.658;2022-12-08T15:13:00;8.05;;;2.80;;
42726;SDS011;28372;56.832;60.658;2022-12-08T15:18:34;8.45;;;3.15;;
42726;SDS011;28372;56.832;60.658;2022-12-08T15:21:08;7.10;;;3.13;;
42726;SDS011;28372;56.832;60.658;2022-12-08T15:23:42;7.70;;;3.38;;
42726;SDS011;28372;56.832;60.658;2022-12-08T15:26:17;7.47;;;2.90;;
42726;SDS011;28372;56.832;60.658;2022-12-08T15:28:54;9.80;;;3.20;;
42726;SDS011;28372;56.832;60.658;2022-12-08T15:31:22;7.63;;;3.13;;
42726;SDS011;28372;56.832;60.658;2022-12-08T15:33:50;6.20;;;3.20;;
42726;SDS011;28372;56.832;60.658;2022-12-08T15:36:17;7.40;;;3.90;;
42726;SDS011;28372;56.832;60.658;2022-12-08T15:38:45;5.95;;;2.95;;
42726;SDS011;28372;56.832;60.658;2022-12-08T15:41:12;8.50;;;3.60;;
42726;SDS011;28372;56.832;60.658;2022-12-08T15:43:41;7.20;;;3.85;;
42726;SDS011;28372;56.832;60.658;2022-12-08T15:46:08;6.97;;;3.35;;
42726;SDS011;28372;56.832;60.658;2022-12-08T15:48:38;6.75;;;3.17;;
42726;SDS011;28372;56.832;60.658;2022-12-08T15:51:05;7.43;;;3.65;;
42726;SDS011;28372;56.832;60.658;2022-12-08T15:53:33;7.80;;;3.53;;
42726;SDS011;28372;56.832;60.658;2022-12-08T15:56:03;8.57;;;3.40;;
42726;SDS011;28372;56.832;60.658;2022-12-08T15:58:53;7.35;;;3.13;;
42726;SDS011;28372;56.832;60.658;2022-12-08T16:01:23;7.63;;;3.35;;
42726;SDS011;28372;56.832;60.658;2022-12-08T16:03:52;7.85;;;3.60;;
42726;SDS011;28372;56.832;60.658;2022-12-08T16:06:44;7.47;;;3.63;;
42726;SDS011;28372;56.832;60.658;2022-12-08T16:09:40;7.95;;;3.88;;
42726;SDS011;28372;56.832;60.658;2022-12-08T16:12:20;7.75;;;3.78;;
42726;SDS011;28372;56.832;60.658;2022-12-08T16:15:29;5.85;;;2.70;;
42726;SDS011;28372;56.832;60.658;2022-12-08T16:18:20;6.55;;;2.88;;
42726;SDS011;28372;56.832;60.658;2022-12-08T16:20:53;8.00;;;3.30;;
42726;SDS011;28372;56.832;60.658;2022-12-08T16:23:41;7.57;;;3.10;;
42726;SDS011;28372;56.832;60.658;2022-12-08T16:26:12;8.10;;;3.45;;
42726;SDS011;28372;56.832;60.658;2022-12-08T16:29:08;10.05;;;3.90;;
42726;SDS011;28372;56.832;60.658;2022-12-08T16:31:43;7.30;;;3.40;;
42726;SDS011;28372;56.832;60.658;2022-12-08T16:34:12;5.68;;;2.65;;
42726;SDS011;28372;56.832;60.658;2022-12-08T16:36:40;8.77;;;3.40;;
42726;SDS011;28372;56.832;60.658;2022-12-08T16:39:09;6.90;;;3.28;;
42726;SDS011;28372;56.832;60.658;2022-12-08T16:41:43;7.07;;;2.88;;
42726;SDS011;28372;56.832;60.658;2022-12-08T16:44:29;5.32;;;2.95;;
42726;SDS011;28372;56.832;60.658;2022-12-08T16:46:56;6.00;;;2.83;;
42726;SDS011;28372;56.832;60.658;2022-12-08T16:49:24;6.50;;;3.22;;
42726;SDS011;28372;56.832;60.658;2022-12-08T16:51:51;6.55;;;3.17;;
42726;SDS011;28372;56.832;60.658;2022-12-08T16:54:19;7.60;;;4.00;;
42726;SDS011;28372;56.832;60.658;2022-12-08T16:56:47;7.03;;;3.22;;
42726;SDS011;28372;56.832;60.658;2022-12-08T16:59:14;10.25;;;3.63;;
42726;SDS011;28372;56.832;60.658;2022-12-08T17:01:42;9.27;;;3.70;;
42726;SDS011;28372;56.832;60.658;2022-12-08T17:04:10;7.40;;;3.40;;
42726;SDS011;28372;56.832;60.658;2022-12-08T17:06:57;7.03;;;3.40;;
42726;SDS011;28372;56.832;60.658;2022-12-08T17:09:25;8.88;;;4.13;;
42726;SDS011;28372;56.832;60.658;2022-12-08T17:11:54;8.55;;;3.83;;
42726;SDS011;28372;56.832;60.658;2022-12-08T17:14:31;7.22;;;3.20;;
42726;SDS011;28372;56.832;60.658;2022-12-08T17:17:01;5.10;;;2.47;;
42726;SDS011;28372;56.832;60.658;2022-12-08T17:19:29;6.32;;;2.50;;
42726;SDS011;28372;56.832;60.658;2022-12-08T17:21:57;6.80;;;2.97;;
42726;SDS011;28372;56.832;60.658;2022-12-08T17:24:24;8.02;;;3.78;;
42726;SDS011;28372;56.832;60.658;2022-12-08T17:26:58;8.40;;;3.95;;